Central Sierra Snow Lab Weather observations

Data are for 10 minute period ending at time listed.
 Day   Time    Incoming  Reflected   Ave.   Ave.    Ave.    Vector  Max.    Ave.    Total    Snow   
  of    of      Solar     Solar      Air    Rel.    Wind    Wind    Wind   Baro.   Precip.   Depth  
Year   Day     Radiation Radiation   Temp.  Humid.  Speed   Dir.    Gust   Press.                   
2018   (PST)    Kw/m2     Kw/m2       F       %      mph     deg.    mph     mb.     in.      in.   
----------------------------------------------------------------------------------------------------
 351   12:50    0.073     999.000     36.4     69     1.6     214     4.7   792.30   -2.96   164.80  
 351   13:00    0.076     999.000     36.7     69     2.0     211     5.4   792.20   -2.96   164.80  
 351   13:10    0.082     999.000     35.3     73     2.4     196     6.1   792.10   -2.96   164.90  
 351   13:20    0.085     999.000     35.3     64     1.6     227     4.6   792.10   -2.96   164.80  
 351   13:30    0.088     999.000     35.0     67     2.1     204     4.8   792.20   -2.96   164.90  
 351   13:40    0.083     999.000     35.2     70     1.7     206     4.4   792.20   -2.96   164.90  
 351   13:50    0.094     999.000     36.2     70     1.6     210     5.4   792.20   -2.96   164.90  
 351   14:00    0.062     999.000     34.8     73     2.5     199     9.3   792.20   -2.96   165.30  
 351   14:10    0.035     999.000     33.1     79     1.8     198     5.3   792.20   -2.96   165.20  
 351   14:20    0.028     999.000     33.0     78     1.7     212     4.7   792.20   -2.96   165.00  
 351   14:30    0.028     999.000     32.1     80     2.1     222     6.2   792.30   -2.96   165.10  
 351   14:40    0.027     999.000     31.8     82     1.5     195     4.2   792.20   -2.96   165.10  
 351   14:50    0.039     999.000     32.3     81     2.0     239     8.1   792.40   -2.96   165.00  
 351   15:00    0.030     999.000     32.6     81     2.2     243     7.2   792.50   -2.96   165.10  
 351   15:10    0.026     999.000     32.1     84     2.2     220     7.1   792.50   -2.96   164.90  
 351   15:20    0.021     999.000     32.0     85     2.2     245     6.7   792.60   -2.96   165.00  
 351   15:30    0.019     999.000     31.6     86     2.6     244     8.2   792.80   -2.96   165.10  
 351   15:40    0.010     999.000     31.0     87     2.9     236     8.6   792.90   -2.96   165.00  
 351   15:50    0.006     999.000     30.6     88     2.1     233     6.0   793.00   -2.96   117.90  
 351   16:00    0.004     999.000     30.3     88     3.2     227     8.6   793.10   -2.96   76.80  
 351   16:10    0.003     999.000     30.1     88     3.0     229     5.9   793.10   -2.96   16.80  
 351   16:20    0.002     999.000     30.1     90     1.5     229     6.8   793.10   -2.96   16.60  
 351   16:30    0.001     999.000     30.0     90     1.8     266     4.9   793.20   -2.96   16.50  
 351   16:40    0.001     999.000     30.0     92     2.0     247     4.4   793.30   -2.96   16.30  
 351   16:50    0.000     999.000     29.9     96     2.1     255     4.9   793.50   -2.96   16.30  
 351   17:00    0.000     999.000     29.8     98     1.7     206     3.6   793.50   -2.96   15.90  
 351   17:10    0.000     999.000     29.7     99     1.7     252     4.3   793.40   -2.96   18.30  
 351   17:20    0.000     999.000     29.7     99     1.2     244     4.1   793.60   -2.96   114.50  
 351   17:30    0.000     999.000     29.6     99     1.3     214     2.8   793.60   -2.96   167.20  
 351   17:40    0.000     999.000     29.6     99     0.8     272     4.0   793.70   -2.96   176.00  
 351   17:50    0.000     999.000     29.6     99     1.2     271     5.2   793.80   -2.96   176.00  
 351   18:00    0.000     999.000     29.6     99     0.9     236     2.2   793.80   -2.96   176.00  
 351   18:10    0.000     999.000     29.6     99     1.1     227     2.8   793.90   -2.96   174.50  
 351   18:20    0.000     999.000     29.6     99     2.2     241     4.6   794.10   -2.96   176.00  
 351   18:30    0.000     999.000     29.5     99     1.5     272     4.0   794.40   -2.97   176.00  
 351   18:40    0.000     999.000     29.5     99     2.5     278     5.7   794.40   -2.97   176.00  
 351   18:50    0.000     999.000     29.7     99     2.8     252     7.5   794.50   -2.97   176.00  
 351   19:00    0.000     999.000     29.6     99     1.7     228     4.8   794.60   -2.96   176.00  
 351   19:10    0.000     999.000     29.6     99     1.3     232     4.5   794.60   -2.96   176.00  
 351   19:20    0.000     999.000     29.5     98     1.6     221     4.7   794.50   -2.97   176.00  
 351   19:30    0.000     999.000     29.5     98     1.6     203     3.2   794.60   -2.96   173.10  
 351   19:40    0.000     999.000     29.3     99     1.6     202     3.2   794.70   -2.96   168.70  
 351   19:50    0.000     999.000     29.2    100     1.7     238     6.0   794.60   -2.97   142.60  
 351   20:00    0.000     999.000     29.4     99     1.7     256     4.6   794.60   -2.97   168.70  
 351   20:10    0.000     999.000     29.4     99     1.3     193     2.7   794.70   -2.97   144.00  
 351   20:20    0.000     999.000     29.6     98     1.1     289     3.1   794.70   -2.97   119.30  
 351   20:30    0.000     999.000     29.6     94     0.6     253     2.9   794.80   -2.96   90.20  
 351   20:40    0.000     999.000     29.5     95     0.4     121     1.5   794.80   -2.96   29.20  
 351   20:50    0.000     999.000     28.9     97     0.2      17     1.4   794.80   -2.97   25.00  
 351   21:00    0.000     999.000     28.3     98     0.9      17     2.2   794.80   -2.96   26.50  
 351   21:10    0.000     999.000     27.9     99     0.5       5     2.2   794.80   -2.96   42.20  
 351   21:20    0.000     999.000     28.0    100     1.2      37     2.8   794.80   -2.96   78.40  
 351   21:30    0.999     999.000    999.0    999   999.0     999   999.0   999.00   999.00   999.00  
 351   21:40    0.999     999.000    999.0    999   999.0     999   999.0   999.00   999.00   999.00  
 351   21:50    0.999     999.000    999.0    999   999.0     999   999.0   999.00   999.00   999.00  
 351   22:00    0.999     999.000    999.0    999   999.0     999   999.0   999.00   999.00   999.00  
 351   22:10    0.999     999.000    999.0    999   999.0     999   999.0   999.00   999.00   999.00  
 351   22:20    0.999     999.000    999.0    999   999.0     999   999.0   999.00   999.00   999.00  
 351   22:30    0.999     999.000    999.0    999   999.0     999   999.0   999.00   999.00   999.00  
 351   22:40    0.999     999.000    999.0    999   999.0     999   999.0   999.00   999.00   999.00  
 351   22:50    0.999     999.000    999.0    999   999.0     999   999.0   999.00   999.00   999.00  
 351   23:00    0.999     999.000    999.0    999   999.0     999   999.0   999.00   999.00   999.00  
 351   23:10    0.999     999.000    999.0    999   999.0     999   999.0   999.00   999.00   999.00  
 351   23:20    0.999     999.000    999.0    999   999.0     999   999.0   999.00   999.00   999.00  
 351   23:30    0.999     999.000    999.0    999   999.0     999   999.0   999.00   999.00   999.00  
 351   23:40    0.999     999.000    999.0    999   999.0     999   999.0   999.00   999.00   999.00  
 351   23:50    0.999     999.000    999.0    999   999.0     999   999.0   999.00   999.00   999.00  
 352    0:00    0.999     999.000    999.0    999   999.0     999   999.0   999.00   999.00   999.00  
 352    0:10    0.999     999.000    999.0    999   999.0     999   999.0   999.00   999.00   999.00  
 352    0:20    0.999     999.000    999.0    999   999.0     999   999.0   999.00   999.00   999.00  
 352    0:30    0.999     999.000    999.0    999   999.0     999   999.0   999.00   999.00   999.00  
 352    0:40    0.999     999.000    999.0    999   999.0     999   999.0   999.00   999.00   999.00  
 352    0:50    0.999     999.000    999.0    999   999.0     999   999.0   999.00   999.00   999.00  
 352    1:00    0.999     999.000    999.0    999   999.0     999   999.0   999.00   999.00   999.00  
 352    1:10    0.999     999.000    999.0    999   999.0     999   999.0   999.00   999.00   999.00  
 352    1:20    0.999     999.000    999.0    999   999.0     999   999.0   999.00   999.00   999.00  
 352    1:30    0.999     999.000    999.0    999   999.0     999   999.0   999.00   999.00   999.00  
 352    1:40    0.999     999.000    999.0    999   999.0     999   999.0   999.00   999.00   999.00  
 352    1:50    0.999     999.000    999.0    999   999.0     999   999.0   999.00   999.00   999.00  
 352    2:00    0.999     999.000    999.0    999   999.0     999   999.0   999.00   999.00   999.00  
 352    2:10    0.999     999.000    999.0    999   999.0     999   999.0   999.00   999.00   999.00  
 352    2:20    0.999     999.000    999.0    999   999.0     999   999.0   999.00   999.00   999.00  
 352    2:30    0.999     999.000    999.0    999   999.0     999   999.0   999.00   999.00   999.00  
 352    2:40    0.999     999.000    999.0    999   999.0     999   999.0   999.00   999.00   999.00  
 352    2:50    0.999     999.000    999.0    999   999.0     999   999.0   999.00   999.00   999.00  
 352    3:00    0.999     999.000    999.0    999   999.0     999   999.0   999.00   999.00   999.00  
 352    3:10    0.999     999.000    999.0    999   999.0     999   999.0   999.00   999.00   999.00  
 352    3:20    0.999     999.000    999.0    999   999.0     999   999.0   999.00   999.00   999.00  
 352    3:30    0.999     999.000    999.0    999   999.0     999   999.0   999.00   999.00   999.00  
 352    3:40    0.999     999.000    999.0    999   999.0     999   999.0   999.00   999.00   999.00  
 352    3:50    0.999     999.000    999.0    999   999.0     999   999.0   999.00   999.00   999.00  
 352    4:00    0.999     999.000    999.0    999   999.0     999   999.0   999.00   999.00   999.00  
 352    4:10    0.999     999.000    999.0    999   999.0     999   999.0   999.00   999.00   999.00  
 352    4:20    0.999     999.000    999.0    999   999.0     999   999.0   999.00   999.00   999.00  
 352    4:30    0.999     999.000    999.0    999   999.0     999   999.0   999.00   999.00   999.00  
 352    4:40    0.999     999.000    999.0    999   999.0     999   999.0   999.00   999.00   999.00  
 352    4:50    0.999     999.000    999.0    999   999.0     999   999.0   999.00   999.00   999.00  
 352    5:00    0.999     999.000    999.0    999   999.0     999   999.0   999.00   999.00   999.00  
 352    5:10    0.999     999.000    999.0    999   999.0     999   999.0   999.00   999.00   999.00  
 352    5:20    0.999     999.000    999.0    999   999.0     999   999.0   999.00   999.00   999.00  
 352    5:30    0.999     999.000    999.0    999   999.0     999   999.0   999.00   999.00   999.00  
 352    5:40    0.999     999.000    999.0    999   999.0     999   999.0   999.00   999.00   999.00  
 352    5:50    0.999     999.000    999.0    999   999.0     999   999.0   999.00   999.00   999.00  
 352    6:00    0.999     999.000    999.0    999   999.0     999   999.0   999.00   999.00   999.00  
 352    6:10    0.999     999.000    999.0    999   999.0     999   999.0   999.00   999.00   999.00  
 352    6:20    0.999     999.000    999.0    999   999.0     999   999.0   999.00   999.00   999.00  
 352    6:30    0.999     999.000    999.0    999   999.0     999   999.0   999.00   999.00   999.00  
 352    6:40    0.999     999.000    999.0    999   999.0     999   999.0   999.00   999.00   999.00  
 352    6:50    0.999     999.000    999.0    999   999.0     999   999.0   999.00   999.00   999.00  
 352    7:00    0.999     999.000    999.0    999   999.0     999   999.0   999.00   999.00   999.00  
 352    7:10    0.999     999.000    999.0    999   999.0     999   999.0   999.00   999.00   999.00  
 352    7:20    0.999     999.000    999.0    999   999.0     999   999.0   999.00   999.00   999.00  
 352    7:30    0.999     999.000    999.0    999   999.0     999   999.0   999.00   999.00   999.00  
 352    7:40    0.999     999.000    999.0    999   999.0     999   999.0   999.00   999.00   999.00  
 352    7:50    0.999     999.000    999.0    999   999.0     999   999.0   999.00   999.00   999.00  
 352    8:00    0.999     999.000    999.0    999   999.0     999   999.0   999.00   999.00   999.00  
 352    8:10    0.999     999.000    999.0    999   999.0     999   999.0   999.00   999.00   999.00  
 352    8:20    0.999     999.000    999.0    999   999.0     999   999.0   999.00   999.00   999.00  
 352    8:30    0.999     999.000    999.0    999   999.0     999   999.0   999.00   999.00   999.00  
 352    8:40    0.999     999.000    999.0    999   999.0     999   999.0   999.00   999.00   999.00  
 352    8:50    0.999     999.000    999.0    999   999.0     999   999.0   999.00   999.00   999.00  
 352    9:00    0.999     999.000    999.0    999   999.0     999   999.0   999.00   999.00   999.00  
 352    9:10    0.999     999.000    999.0    999   999.0     999   999.0   999.00   999.00   999.00  
 352    9:20    0.999     999.000    999.0    999   999.0     999   999.0   999.00   999.00   999.00  
 352    9:30    0.999     999.000    999.0    999   999.0     999   999.0   999.00   999.00   999.00  
 352    9:40    0.999     999.000    999.0    999   999.0     999   999.0   999.00   999.00   999.00  
 352    9:50    0.999     999.000    999.0    999   999.0     999   999.0   999.00   999.00   999.00  
 352   10:00    0.999     999.000    999.0    999   999.0     999   999.0   999.00   999.00   999.00  
 352   10:10    0.139     999.000     31.8     85     2.1     228     5.5   796.10   -2.96   121.50  
 352   10:20    0.253     999.000     36.6     70     1.9     216     5.0   797.00   -2.96   164.90  
 352   10:30    0.161     999.000     36.8     67     2.5     227     6.8   797.10   -2.96   165.00  
 352   10:40    0.161     999.000     36.0     71     2.4     197     5.1   797.10   -2.96   165.30  
 352   10:50    0.219     999.000     35.1     75     3.2     194     7.0   797.00   -2.96   164.90  
 352   11:00    0.237     999.000     35.3     74     2.9     196     6.2   796.90   -2.96   164.90  
 352   11:10    0.176     999.000     35.3     74     2.8     203     5.4   796.90   -2.96   165.10  
 352   11:20    0.218     999.000     35.4     74     2.8     203     5.4   796.90   -2.96   165.10  
 352   11:30    0.218     999.000     36.8     71     2.1     215     4.9   796.90   -2.96   164.90  
 352   11:40    0.208     999.000     37.8     69     2.0     206     4.7   796.90   -2.96   164.90  
 352   11:50    0.182     999.000     36.7     69     2.8     205     7.1   796.80   -2.96   165.10  
 352   12:00    0.187     999.000     35.5     72     3.0     204     6.8   796.70   -2.96   165.30  
 352   12:10    0.196     999.000     35.1     73     3.1     198     7.4   796.70   -2.96   164.90  
 352   12:20    0.216     999.000     35.1     71     3.2     198     6.1   796.70   -2.96   164.90  
 352   12:30    0.218     999.000     35.4     72     2.2     205     4.7   796.80   -2.96   164.90  
 352   12:40    0.264     999.000     36.3     68     2.1     213     5.3   796.80   -2.96   164.90  

Return to Central Sierra Snow Lab graphs page.


Western Regional Climate Center,wrcc@dri.edu